sensor_id;sensor_type;location;lat;lon;timestamp;temperature;humidity
8103;DHT22;4094;49.948;11.574;2023-03-03T00:01:50;6.60;50.50
8103;DHT22;4094;49.948;11.574;2023-03-03T00:04:19;6.60;50.60
8103;DHT22;4094;49.948;11.574;2023-03-03T00:06:48;6.50;50.70
8103;DHT22;4094;49.948;11.574;2023-03-03T00:09:17;6.50;51.00
8103;DHT22;4094;49.948;11.574;2023-03-03T00:11:49;6.50;51.20
8103;DHT22;4094;49.948;11.574;2023-03-03T00:14:27;6.40;51.30
8103;DHT22;4094;49.948;11.574;2023-03-03T00:16:58;6.40;51.40
8103;DHT22;4094;49.948;11.574;2023-03-03T00:19:37;6.40;51.70
8103;DHT22;4094;49.948;11.574;2023-03-03T00:22:15;6.40;51.50
8103;DHT22;4094;49.948;11.574;2023-03-03T00:24:45;6.30;51.60
8103;DHT22;4094;49.948;11.574;2023-03-03T00:27:19;6.30;51.60
8103;DHT22;4094;49.948;11.574;2023-03-03T00:29:53;6.30;51.70
8103;DHT22;4094;49.948;11.574;2023-03-03T00:32:25;6.20;51.70
8103;DHT22;4094;49.948;11.574;2023-03-03T00:35:00;6.20;51.90
8103;DHT22;4094;49.948;11.574;2023-03-03T00:37:32;6.10;52.00
8103;DHT22;4094;49.948;11.574;2023-03-03T00:40:20;6.10;52.00
8103;DHT22;4094;49.948;11.574;2023-03-03T00:42:52;6.10;52.20
8103;DHT22;4094;49.948;11.574;2023-03-03T00:45:27;6.10;52.20
8103;DHT22;4094;49.948;11.574;2023-03-03T00:47:58;6.00;52.30
8103;DHT22;4094;49.948;11.574;2023-03-03T00:50:30;6.00;52.40
8103;DHT22;4094;49.948;11.574;2023-03-03T00:53:03;5.90;52.50
8103;DHT22;4094;49.948;11.574;2023-03-03T00:55:33;5.90;52.50
8103;DHT22;4094;49.948;11.574;2023-03-03T00:58:03;5.90;52.60
8103;DHT22;4094;49.948;11.574;2023-03-03T01:00:38;5.90;52.60
8103;DHT22;4094;49.948;11.574;2023-03-03T01:03:13;5.90;52.80
8103;DHT22;4094;49.948;11.574;2023-03-03T01:05:43;5.90;52.80
8103;DHT22;4094;49.948;11.574;2023-03-03T01:08:12;5.90;52.70
8103;DHT22;4094;49.948;11.574;2023-03-03T01:10:45;5.90;52.90
8103;DHT22;4094;49.948;11.574;2023-03-03T01:13:18;5.80;52.90
8103;DHT22;4094;49.948;11.574;2023-03-03T01:15:49;5.80;52.90
8103;DHT22;4094;49.948;11.574;2023-03-03T01:18:19;5.80;52.90
8103;DHT22;4094;49.948;11.574;2023-03-03T01:20:48;5.80;52.90
8103;DHT22;4094;49.948;11.574;2023-03-03T01:23:17;5.80;52.90
8103;DHT22;4094;49.948;11.574;2023-03-03T01:25:46;5.80;53.00
8103;DHT22;4094;49.948;11.574;2023-03-03T01:28:16;5.70;52.90
8103;DHT22;4094;49.948;11.574;2023-03-03T01:30:45;5.70;52.90
8103;DHT22;4094;49.948;11.574;2023-03-03T01:33:16;5.70;53.00
8103;DHT22;4094;49.948;11.574;2023-03-03T01:35:46;5.70;53.20
8103;DHT22;4094;49.948;11.574;2023-03-03T01:38:15;5.60;53.20
8103;DHT22;4094;49.948;11.574;2023-03-03T01:40:51;5.70;53.20
8103;DHT22;4094;49.948;11.574;2023-03-03T01:43:21;5.60;53.30
8103;DHT22;4094;49.948;11.574;2023-03-03T01:46:25;5.60;53.40
8103;DHT22;4094;49.948;11.574;2023-03-03T01:48:58;5.60;53.50
8103;DHT22;4094;49.948;11.574;2023-03-03T01:51:32;5.60;53.50
8103;DHT22;4094;49.948;11.574;2023-03-03T01:54:04;5.60;53.60
8103;DHT22;4094;49.948;11.574;2023-03-03T01:56:34;5.60;53.70
8103;DHT22;4094;49.948;11.574;2023-03-03T01:59:06;5.60;53.70
8103;DHT22;4094;49.948;11.574;2023-03-03T02:01:37;5.60;53.90
8103;DHT22;4094;49.948;11.574;2023-03-03T02:04:08;5.50;53.90
8103;DHT22;4094;49.948;11.574;2023-03-03T02:06:40;5.60;53.90
8103;DHT22;4094;49.948;11.574;2023-03-03T02:09:14;5.60;54.00
8103;DHT22;4094;49.948;11.574;2023-03-03T02:11:46;5.60;54.10
8103;DHT22;4094;49.948;11.574;2023-03-03T02:14:18;5.50;54.00
8103;DHT22;4094;49.948;11.574;2023-03-03T02:16:47;5.50;54.10
8103;DHT22;4094;49.948;11.574;2023-03-03T02:19:23;5.50;54.20
8103;DHT22;4094;49.948;11.574;2023-03-03T02:21:55;5.40;54.30
8103;DHT22;4094;49.948;11.574;2023-03-03T02:24:27;5.40;54.20
8103;DHT22;4094;49.948;11.574;2023-03-03T02:27:01;5.40;54.40
8103;DHT22;4094;49.948;11.574;2023-03-03T02:29:30;5.40;54.40
8103;DHT22;4094;49.948;11.574;2023-03-03T02:31:59;5.40;54.40
8103;DHT22;4094;49.948;11.574;2023-03-03T02:34:29;5.30;54.40
8103;DHT22;4094;49.948;11.574;2023-03-03T02:36:58;5.40;54.50
8103;DHT22;4094;49.948;11.574;2023-03-03T02:39:27;5.30;54.60
8103;DHT22;4094;49.948;11.574;2023-03-03T02:42:01;5.40;54.60
8103;DHT22;4094;49.948;11.574;2023-03-03T02:44:40;5.30;54.70
8103;DHT22;4094;49.948;11.574;2023-03-03T02:47:09;5.30;54.70
8103;DHT22;4094;49.948;11.574;2023-03-03T02:49:38;5.30;54.70
8103;DHT22;4094;49.948;11.574;2023-03-03T02:52:10;5.30;54.70
8103;DHT22;4094;49.948;11.574;2023-03-03T02:54:41;5.30;54.80
8103;DHT22;4094;49.948;11.574;2023-03-03T02:57:12;5.30;54.80
8103;DHT22;4094;49.948;11.574;2023-03-03T02:59:40;5.30;54.90
8103;DHT22;4094;49.948;11.574;2023-03-03T03:02:13;5.20;54.90
8103;DHT22;4094;49.948;11.574;2023-03-03T03:04:42;5.20;55.00
8103;DHT22;4094;49.948;11.574;2023-03-03T03:07:15;5.30;55.10
8103;DHT22;4094;49.948;11.574;2023-03-03T03:09:44;5.30;55.10
8103;DHT22;4094;49.948;11.574;2023-03-03T03:12:15;5.20;55.20
8103;DHT22;4094;49.948;11.574;2023-03-03T03:14:48;5.20;55.20
8103;DHT22;4094;49.948;11.574;2023-03-03T03:17:16;5.20;55.20
8103;DHT22;4094;49.948;11.574;2023-03-03T03:19:46;5.20;55.20
8103;DHT22;4094;49.948;11.574;2023-03-03T03:22:15;5.20;55.30
8103;DHT22;4094;49.948;11.574;2023-03-03T03:24:46;5.20;55.40
8103;DHT22;4094;49.948;11.574;2023-03-03T03:27:17;5.20;55.90
8103;DHT22;4094;49.948;11.574;2023-03-03T03:29:48;5.10;55.30
8103;DHT22;4094;49.948;11.574;2023-03-03T03:32:18;5.10;55.40
8103;DHT22;4094;49.948;11.574;2023-03-03T03:34:47;5.10;55.40
8103;DHT22;4094;49.948;11.574;2023-03-03T03:37:16;5.10;55.50
8103;DHT22;4094;49.948;11.574;2023-03-03T03:39:46;5.10;55.50
8103;DHT22;4094;49.948;11.574;2023-03-03T03:42:19;5.10;55.60
8103;DHT22;4094;49.948;11.574;2023-03-03T03:44:48;5.10;55.60
8103;DHT22;4094;49.948;11.574;2023-03-03T03:47:18;5.00;55.70
8103;DHT22;4094;49.948;11.574;2023-03-03T03:49:46;5.00;55.70
8103;DHT22;4094;49.948;11.574;2023-03-03T03:52:16;5.00;55.60
8103;DHT22;4094;49.948;11.574;2023-03-03T03:54:45;5.00;55.70
8103;DHT22;4094;49.948;11.574;2023-03-03T03:57:14;5.00;55.70
8103;DHT22;4094;49.948;11.574;2023-03-03T03:59:45;5.00;55.90
8103;DHT22;4094;49.948;11.574;2023-03-03T04:02:15;5.00;55.90
8103;DHT22;4094;49.948;11.574;2023-03-03T04:04:44;4.90;55.80
8103;DHT22;4094;49.948;11.574;2023-03-03T04:07:13;4.90;55.80
8103;DHT22;4094;49.948;11.574;2023-03-03T04:09:42;5.00;55.90
8103;DHT22;4094;49.948;11.574;2023-03-03T04:12:12;4.90;55.80
8103;DHT22;4094;49.948;11.574;2023-03-03T04:14:41;4.90;55.90
8103;DHT22;4094;49.948;11.574;2023-03-03T04:17:15;4.90;55.90
8103;DHT22;4094;49.948;11.574;2023-03-03T04:19:45;4.90;56.50
8103;DHT22;4094;49.948;11.574;2023-03-03T04:22:14;4.90;56.00
8103;DHT22;4094;49.948;11.574;2023-03-03T04:24:44;4.90;56.00
8103;DHT22;4094;49.948;11.574;2023-03-03T04:27:16;4.80;56.00
8103;DHT22;4094;49.948;11.574;2023-03-03T04:29:46;4.80;56.10
8103;DHT22;4094;49.948;11.574;2023-03-03T04:32:16;4.80;56.20
8103;DHT22;4094;49.948;11.574;2023-03-03T04:34:47;4.80;56.20
8103;DHT22;4094;49.948;11.574;2023-03-03T04:37:33;4.80;56.80
8103;DHT22;4094;49.948;11.574;2023-03-03T04:40:04;4.80;56.40
8103;DHT22;4094;49.948;11.574;2023-03-03T04:42:34;4.70;56.40
8103;DHT22;4094;49.948;11.574;2023-03-03T04:45:06;4.70;56.40
8103;DHT22;4094;49.948;11.574;2023-03-03T04:47:37;4.80;56.60
8103;DHT22;4094;49.948;11.574;2023-03-03T04:50:07;4.70;56.60
8103;DHT22;4094;49.948;11.574;2023-03-03T04:52:37;4.80;56.70
8103;DHT22;4094;49.948;11.574;2023-03-03T04:55:08;4.70;56.70
8103;DHT22;4094;49.948;11.574;2023-03-03T04:57:39;4.70;56.80
8103;DHT22;4094;49.948;11.574;2023-03-03T05:00:09;4.70;56.80
8103;DHT22;4094;49.948;11.574;2023-03-03T05:02:41;4.70;56.90
8103;DHT22;4094;49.948;11.574;2023-03-03T05:05:12;4.70;56.90
8103;DHT22;4094;49.948;11.574;2023-03-03T05:07:42;4.70;57.00
8103;DHT22;4094;49.948;11.574;2023-03-03T05:10:11;4.70;57.50
8103;DHT22;4094;49.948;11.574;2023-03-03T05:12:40;4.70;56.90
8103;DHT22;4094;49.948;11.574;2023-03-03T05:15:10;4.60;57.00
8103;DHT22;4094;49.948;11.574;2023-03-03T05:17:40;4.70;57.10
8103;DHT22;4094;49.948;11.574;2023-03-03T05:20:11;4.70;57.10
8103;DHT22;4094;49.948;11.574;2023-03-03T05:22:41;4.60;57.10
8103;DHT22;4094;49.948;11.574;2023-03-03T05:25:10;4.60;57.30
8103;DHT22;4094;49.948;11.574;2023-03-03T05:27:40;4.60;57.30
8103;DHT22;4094;49.948;11.574;2023-03-03T05:30:11;4.60;57.40
8103;DHT22;4094;49.948;11.574;2023-03-03T05:32:41;4.60;57.50
8103;DHT22;4094;49.948;11.574;2023-03-03T05:35:10;4.60;57.50
8103;DHT22;4094;49.948;11.574;2023-03-03T05:37:39;4.60;57.60
8103;DHT22;4094;49.948;11.574;2023-03-03T05:40:14;4.60;57.70
8103;DHT22;4094;49.948;11.574;2023-03-03T05:42:43;4.60;57.70
8103;DHT22;4094;49.948;11.574;2023-03-03T05:45:12;4.60;57.60
8103;DHT22;4094;49.948;11.574;2023-03-03T05:47:43;4.60;57.70
8103;DHT22;4094;49.948;11.574;2023-03-03T05:50:13;4.60;57.80
8103;DHT22;4094;49.948;11.574;2023-03-03T05:52:42;4.60;57.80
8103;DHT22;4094;49.948;11.574;2023-03-03T05:55:11;4.60;57.80
8103;DHT22;4094;49.948;11.574;2023-03-03T05:57:40;4.60;57.80
8103;DHT22;4094;49.948;11.574;2023-03-03T06:00:11;4.60;57.80
8103;DHT22;4094;49.948;11.574;2023-03-03T06:02:42;4.60;57.90
8103;DHT22;4094;49.948;11.574;2023-03-03T06:05:12;4.60;57.80
8103;DHT22;4094;49.948;11.574;2023-03-03T06:07:41;4.60;57.90
8103;DHT22;4094;49.948;11.574;2023-03-03T06:10:11;4.60;57.90
8103;DHT22;4094;49.948;11.574;2023-03-03T06:12:42;4.60;57.90
8103;DHT22;4094;49.948;11.574;2023-03-03T06:15:11;4.60;57.80
8103;DHT22;4094;49.948;11.574;2023-03-03T06:17:42;4.60;58.30
8103;DHT22;4094;49.948;11.574;2023-03-03T06:20:12;4.60;57.80
8103;DHT22;4094;49.948;11.574;2023-03-03T06:22:41;4.60;57.80
8103;DHT22;4094;49.948;11.574;2023-03-03T06:25:10;4.50;57.90
8103;DHT22;4094;49.948;11.574;2023-03-03T06:27:40;4.50;58.00
8103;DHT22;4094;49.948;11.574;2023-03-03T06:30:10;4.60;58.20
8103;DHT22;4094;49.948;11.574;2023-03-03T06:32:48;4.60;58.30
8103;DHT22;4094;49.948;11.574;2023-03-03T06:35:18;4.60;58.30
8103;DHT22;4094;49.948;11.574;2023-03-03T06:37:47;4.60;58.40
8103;DHT22;4094;49.948;11.574;2023-03-03T06:40:18;4.60;58.50
8103;DHT22;4094;49.948;11.574;2023-03-03T06:42:47;4.60;58.50
8103;DHT22;4094;49.948;11.574;2023-03-03T06:45:17;4.70;58.50
8103;DHT22;4094;49.948;11.574;2023-03-03T06:47:49;4.70;58.50
8103;DHT22;4094;49.948;11.574;2023-03-03T06:50:19;4.70;58.60
8103;DHT22;4094;49.948;11.574;2023-03-03T06:52:52;4.80;58.60
8103;DHT22;4094;49.948;11.574;2023-03-03T06:55:27;4.80;58.70
8103;DHT22;4094;49.948;11.574;2023-03-03T06:57:58;4.90;58.60
8103;DHT22;4094;49.948;11.574;2023-03-03T07:00:28;4.90;58.70
8103;DHT22;4094;49.948;11.574;2023-03-03T07:03:06;5.00;58.80
8103;DHT22;4094;49.948;11.574;2023-03-03T07:05:35;5.00;58.80
8103;DHT22;4094;49.948;11.574;2023-03-03T07:08:11;5.00;58.70
8103;DHT22;4094;49.948;11.574;2023-03-03T07:10:41;5.10;58.80
8103;DHT22;4094;49.948;11.574;2023-03-03T07:13:20;5.10;58.80
8103;DHT22;4094;49.948;11.574;2023-03-03T07:15:51;5.20;58.80
8103;DHT22;4094;49.948;11.574;2023-03-03T07:18:33;5.20;58.80
8103;DHT22;4094;49.948;11.574;2023-03-03T07:21:16;5.30;58.80
8103;DHT22;4094;49.948;11.574;2023-03-03T07:23:48;5.30;58.80
8103;DHT22;4094;49.948;11.574;2023-03-03T07:26:20;5.40;58.80
8103;DHT22;4094;49.948;11.574;2023-03-03T07:28:53;5.50;58.80
8103;DHT22;4094;49.948;11.574;2023-03-03T07:31:30;5.50;58.70
8103;DHT22;4094;49.948;11.574;2023-03-03T07:34:16;5.60;58.70
8103;DHT22;4094;49.948;11.574;2023-03-03T07:36:48;5.70;58.50
8103;DHT22;4094;49.948;11.574;2023-03-03T07:39:26;5.70;58.40
8103;DHT22;4094;49.948;11.574;2023-03-03T07:42:13;5.80;58.60
8103;DHT22;4094;49.948;11.574;2023-03-03T07:44:43;5.90;58.60
8103;DHT22;4094;49.948;11.574;2023-03-03T07:47:22;6.00;58.40
8103;DHT22;4094;49.948;11.574;2023-03-03T07:49:55;6.00;58.40
8103;DHT22;4094;49.948;11.574;2023-03-03T07:52:31;6.10;58.50
8103;DHT22;4094;49.948;11.574;2023-03-03T07:55:24;6.30;58.90
8103;DHT22;4094;49.948;11.574;2023-03-03T07:58:17;6.70;59.20
8103;DHT22;4094;49.948;11.574;2023-03-03T08:01:23;7.20;58.90
8103;DHT22;4094;49.948;11.574;2023-03-03T08:03:56;7.80;58.40
8103;DHT22;4094;49.948;11.574;2023-03-03T08:06:35;8.40;58.00
8103;DHT22;4094;49.948;11.574;2023-03-03T08:09:38;9.00;56.80
8103;DHT22;4094;49.948;11.574;2023-03-03T08:12:26;9.30;55.30
8103;DHT22;4094;49.948;11.574;2023-03-03T08:15:04;9.60;54.30
8103;DHT22;4094;49.948;11.574;2023-03-03T08:17:42;9.60;53.70
8103;DHT22;4094;49.948;11.574;2023-03-03T08:23:20;9.60;53.00
8103;DHT22;4094;49.948;11.574;2023-03-03T08:25:50;9.50;52.90
8103;DHT22;4094;49.948;11.574;2023-03-03T08:28:20;9.40;52.80
8103;DHT22;4094;49.948;11.574;2023-03-03T08:30:50;9.40;53.40
8103;DHT22;4094;49.948;11.574;2023-03-03T08:33:36;9.60;53.90
8103;DHT22;4094;49.948;11.574;2023-03-03T08:36:06;9.90;54.10
8103;DHT22;4094;49.948;11.574;2023-03-03T08:38:37;10.40;53.70
8103;DHT22;4094;49.948;11.574;2023-03-03T08:41:06;10.80;53.30
8103;DHT22;4094;49.948;11.574;2023-03-03T08:43:36;11.30;52.80
8103;DHT22;4094;49.948;11.574;2023-03-03T08:46:06;11.80;52.30
8103;DHT22;4094;49.948;11.574;2023-03-03T08:48:37;12.20;51.80
8103;DHT22;4094;49.948;11.574;2023-03-03T08:51:06;12.60;51.00
8103;DHT22;4094;49.948;11.574;2023-03-03T08:53:37;12.90;49.80
8103;DHT22;4094;49.948;11.574;2023-03-03T08:56:07;13.00;48.70
8103;DHT22;4094;49.948;11.574;2023-03-03T08:58:37;13.00;48.10
8103;DHT22;4094;49.948;11.574;2023-03-03T09:01:26;12.90;47.50
8103;DHT22;4094;49.948;11.574;2023-03-03T09:03:55;12.60;47.40
8103;DHT22;4094;49.948;11.574;2023-03-03T09:06:24;12.40;47.60
8103;DHT22;4094;49.948;11.574;2023-03-03T09:08:55;12.10;47.70
8103;DHT22;4094;49.948;11.574;2023-03-03T09:11:27;11.80;48.00
8103;DHT22;4094;49.948;11.574;2023-03-03T09:14:03;11.60;48.20
8103;DHT22;4094;49.948;11.574;2023-03-03T09:16:37;11.40;48.40
8103;DHT22;4094;49.948;11.574;2023-03-03T09:19:20;11.20;48.70
8103;DHT22;4094;49.948;11.574;2023-03-03T09:21:50;11.10;49.00
8103;DHT22;4094;49.948;11.574;2023-03-03T09:24:26;11.00;49.40
8103;DHT22;4094;49.948;11.574;2023-03-03T09:26:56;10.90;49.40
8103;DHT22;4094;49.948;11.574;2023-03-03T09:29:28;10.90;49.80
8103;DHT22;4094;49.948;11.574;2023-03-03T09:31:58;10.90;50.30
8103;DHT22;4094;49.948;11.574;2023-03-03T09:34:37;11.00;50.20
8103;DHT22;4094;49.948;11.574;2023-03-03T09:37:17;11.00;49.90
8103;DHT22;4094;49.948;11.574;2023-03-03T09:39:52;11.10;49.90
8103;DHT22;4094;49.948;11.574;2023-03-03T09:42:40;11.20;50.10
8103;DHT22;4094;49.948;11.574;2023-03-03T09:45:28;11.30;50.10
8103;DHT22;4094;49.948;11.574;2023-03-03T09:51:15;11.40;49.80
8103;DHT22;4094;49.948;11.574;2023-03-03T09:53:57;11.60;49.50
8103;DHT22;4094;49.948;11.574;2023-03-03T09:56:32;11.70;49.50
8103;DHT22;4094;49.948;11.574;2023-03-03T09:59:13;11.80;49.20
8103;DHT22;4094;49.948;11.574;2023-03-03T10:01:53;12.00;49.40
8103;DHT22;4094;49.948;11.574;2023-03-03T10:04:50;12.10;49.30
8103;DHT22;4094;49.948;11.574;2023-03-03T10:07:31;12.40;49.40
8103;DHT22;4094;49.948;11.574;2023-03-03T10:10:20;12.60;49.10
8103;DHT22;4094;49.948;11.574;2023-03-03T10:13:08;12.90;48.70
8103;DHT22;4094;49.948;11.574;2023-03-03T10:15:45;13.20;48.10
8103;DHT22;4094;49.948;11.574;2023-03-03T10:18:27;13.60;48.00
8103;DHT22;4094;49.948;11.574;2023-03-03T10:21:06;14.10;47.30
8103;DHT22;4094;49.948;11.574;2023-03-03T10:23:52;14.50;47.10
8103;DHT22;4094;49.948;11.574;2023-03-03T10:26:41;15.10;47.00
8103;DHT22;4094;49.948;11.574;2023-03-03T10:29:34;15.70;45.70
8103;DHT22;4094;49.948;11.574;2023-03-03T10:32:26;16.30;45.20
8103;DHT22;4094;49.948;11.574;2023-03-03T10:35:11;16.90;44.30
8103;DHT22;4094;49.948;11.574;2023-03-03T10:37:48;17.40;43.80
8103;DHT22;4094;49.948;11.574;2023-03-03T10:40:23;18.00;42.80
8103;DHT22;4094;49.948;11.574;2023-03-03T10:43:20;18.50;41.80
8103;DHT22;4094;49.948;11.574;2023-03-03T10:46:19;19.00;40.30
8103;DHT22;4094;49.948;11.574;2023-03-03T10:49:06;19.30;39.30
8103;DHT22;4094;49.948;11.574;2023-03-03T10:51:48;19.50;38.70
8103;DHT22;4094;49.948;11.574;2023-03-03T10:54:42;19.60;38.10
8103;DHT22;4094;49.948;11.574;2023-03-03T10:57:18;19.50;37.50
8103;DHT22;4094;49.948;11.574;2023-03-03T11:03:07;19.00;37.10
8103;DHT22;4094;49.948;11.574;2023-03-03T11:05:45;18.70;37.30
8103;DHT22;4094;49.948;11.574;2023-03-03T11:08:21;18.40;37.70
8103;DHT22;4094;49.948;11.574;2023-03-03T11:10:59;18.20;37.90
8103;DHT22;4094;49.948;11.574;2023-03-03T11:13:41;18.20;38.60
8103;DHT22;4094;49.948;11.574;2023-03-03T11:16:24;18.30;38.40
8103;DHT22;4094;49.948;11.574;2023-03-03T11:19:06;18.60;38.60
8103;DHT22;4094;49.948;11.574;2023-03-03T11:21:42;19.00;37.80
8103;DHT22;4094;49.948;11.574;2023-03-03T11:24:26;19.40;37.40
8103;DHT22;4094;49.948;11.574;2023-03-03T11:27:08;19.80;37.20
8103;DHT22;4094;49.948;11.574;2023-03-03T11:29:49;20.10;37.00
8103;DHT22;4094;49.948;11.574;2023-03-03T11:32:31;20.40;36.10
8103;DHT22;4094;49.948;11.574;2023-03-03T11:35:15;20.60;36.30
8103;DHT22;4094;49.948;11.574;2023-03-03T11:37:54;20.90;35.50
8103;DHT22;4094;49.948;11.574;2023-03-03T11:40:29;21.10;35.00
8103;DHT22;4094;49.948;11.574;2023-03-03T11:43:04;21.30;34.70
8103;DHT22;4094;49.948;11.574;2023-03-03T11:45:39;21.40;34.20
8103;DHT22;4094;49.948;11.574;2023-03-03T11:48:15;21.30;33.60
8103;DHT22;4094;49.948;11.574;2023-03-03T11:50:54;21.20;33.70
8103;DHT22;4094;49.948;11.574;2023-03-03T11:53:35;21.00;33.60
8103;DHT22;4094;49.948;11.574;2023-03-03T11:56:18;20.90;33.90
8103;DHT22;4094;49.948;11.574;2023-03-03T11:58:57;20.90;34.30
8103;DHT22;4094;49.948;11.574;2023-03-03T12:01:34;21.00;34.30
8103;DHT22;4094;49.948;11.574;2023-03-03T12:04:08;21.10;34.40
8103;DHT22;4094;49.948;11.574;2023-03-03T12:06:51;21.40;34.40
8103;DHT22;4094;49.948;11.574;2023-03-03T12:09:36;21.60;34.40
8103;DHT22;4094;49.948;11.574;2023-03-03T12:12:13;21.80;33.70
8103;DHT22;4094;49.948;11.574;2023-03-03T12:15:06;22.00;33.40
8103;DHT22;4094;49.948;11.574;2023-03-03T12:17:51;22.20;33.00
8103;DHT22;4094;49.948;11.574;2023-03-03T12:20:30;22.50;33.20
8103;DHT22;4094;49.948;11.574;2023-03-03T12:23:14;22.70;32.60
8103;DHT22;4094;49.948;11.574;2023-03-03T12:25:50;22.80;32.00
8103;DHT22;4094;49.948;11.574;2023-03-03T12:28:25;23.00;32.10
8103;DHT22;4094;49.948;11.574;2023-03-03T12:31:15;23.20;31.90
8103;DHT22;4094;49.948;11.574;2023-03-03T12:33:51;23.50;31.70
8103;DHT22;4094;49.948;11.574;2023-03-03T12:36:48;23.90;31.20
8103;DHT22;4094;49.948;11.574;2023-03-03T12:39:29;24.40;31.30
8103;DHT22;4094;49.948;11.574;2023-03-03T12:42:09;24.90;30.20
8103;DHT22;4094;49.948;11.574;2023-03-03T12:44:45;25.30;30.20
8103;DHT22;4094;49.948;11.574;2023-03-03T12:47:21;25.80;29.80
8103;DHT22;4094;49.948;11.574;2023-03-03T12:50:02;26.20;29.20
8103;DHT22;4094;49.948;11.574;2023-03-03T12:52:43;26.40;28.90
8103;DHT22;4094;49.948;11.574;2023-03-03T12:55:23;26.50;28.50
8103;DHT22;4094;49.948;11.574;2023-03-03T12:58:00;26.50;28.00
8103;DHT22;4094;49.948;11.574;2023-03-03T13:00:42;26.20;27.40
8103;DHT22;4094;49.948;11.574;2023-03-03T13:03:34;25.80;27.50
8103;DHT22;4094;49.948;11.574;2023-03-03T13:06:26;25.30;27.70
8103;DHT22;4094;49.948;11.574;2023-03-03T13:09:05;24.60;27.90
8103;DHT22;4094;49.948;11.574;2023-03-03T13:11:44;24.00;28.30
8103;DHT22;4094;49.948;11.574;2023-03-03T13:14:26;23.60;28.50
8103;DHT22;4094;49.948;11.574;2023-03-03T13:17:04;23.00;28.70
8103;DHT22;4094;49.948;11.574;2023-03-03T13:20:07;22.50;29.20
8103;DHT22;4094;49.948;11.574;2023-03-03T13:22:44;21.90;29.70
8103;DHT22;4094;49.948;11.574;2023-03-03T13:25:33;21.50;29.70
8103;DHT22;4094;49.948;11.574;2023-03-03T13:28:10;21.00;30.00
8103;DHT22;4094;49.948;11.574;2023-03-03T13:30:46;20.50;30.20
8103;DHT22;4094;49.948;11.574;2023-03-03T13:33:24;20.00;30.40
8103;DHT22;4094;49.948;11.574;2023-03-03T13:35:58;19.40;30.80
8103;DHT22;4094;49.948;11.574;2023-03-03T13:38:31;18.90;31.90
8103;DHT22;4094;49.948;11.574;2023-03-03T13:41:09;18.40;31.80
8103;DHT22;4094;49.948;11.574;2023-03-03T13:43:48;17.80;32.20
8103;DHT22;4094;49.948;11.574;2023-03-03T13:46:24;17.30;32.70
8103;DHT22;4094;49.948;11.574;2023-03-03T13:49:19;16.80;33.10
8103;DHT22;4094;49.948;11.574;2023-03-03T13:51:59;16.30;33.60
8103;DHT22;4094;49.948;11.574;2023-03-03T13:54:48;15.90;34.40
8103;DHT22;4094;49.948;11.574;2023-03-03T13:57:28;15.50;34.70
8103;DHT22;4094;49.948;11.574;2023-03-03T14:00:11;15.10;35.10
8103;DHT22;4094;49.948;11.574;2023-03-03T14:05:47;14.40;36.00
8103;DHT22;4094;49.948;11.574;2023-03-03T14:08:30;14.10;36.30
8103;DHT22;4094;49.948;11.574;2023-03-03T14:11:09;13.90;36.80
8103;DHT22;4094;49.948;11.574;2023-03-03T14:13:48;13.70;37.20
8103;DHT22;4094;49.948;11.574;2023-03-03T14:16:38;13.40;37.20
8103;DHT22;4094;49.948;11.574;2023-03-03T14:19:14;13.30;37.80
8103;DHT22;4094;49.948;11.574;2023-03-03T14:21:51;13.10;38.10
8103;DHT22;4094;49.948;11.574;2023-03-03T14:24:22;13.00;38.40
8103;DHT22;4094;49.948;11.574;2023-03-03T14:26:54;12.80;38.50
8103;DHT22;4094;49.948;11.574;2023-03-03T14:29:30;12.60;38.70
8103;DHT22;4094;49.948;11.574;2023-03-03T14:32:19;12.50;39.20
8103;DHT22;4094;49.948;11.574;2023-03-03T14:34:57;12.40;39.40
8103;DHT22;4094;49.948;11.574;2023-03-03T14:37:28;12.30;39.60
8103;DHT22;4094;49.948;11.574;2023-03-03T14:40:15;12.20;39.70
8103;DHT22;4094;49.948;11.574;2023-03-03T14:42:54;12.10;39.90
8103;DHT22;4094;49.948;11.574;2023-03-03T14:45:46;12.10;40.00
8103;DHT22;4094;49.948;11.574;2023-03-03T14:48:31;12.00;40.40
8103;DHT22;4094;49.948;11.574;2023-03-03T14:51:41;11.90;40.20
8103;DHT22;4094;49.948;11.574;2023-03-03T14:54:18;11.90;40.70
8103;DHT22;4094;49.948;11.574;2023-03-03T14:57:01;11.80;40.90
8103;DHT22;4094;49.948;11.574;2023-03-03T14:59:31;11.70;40.90
8103;DHT22;4094;49.948;11.574;2023-03-03T15:02:28;11.70;40.70
8103;DHT22;4094;49.948;11.574;2023-03-03T15:05:16;11.60;41.00
8103;DHT22;4094;49.948;11.574;2023-03-03T15:07:48;11.60;41.30
8103;DHT22;4094;49.948;11.574;2023-03-03T15:10:32;11.50;41.10
8103;DHT22;4094;49.948;11.574;2023-03-03T15:15:59;11.30;41.30
8103;DHT22;4094;49.948;11.574;2023-03-03T15:18:31;11.20;41.40
8103;DHT22;4094;49.948;11.574;2023-03-03T15:21:04;11.10;41.50
8103;DHT22;4094;49.948;11.574;2023-03-03T15:23:43;11.10;41.90
8103;DHT22;4094;49.948;11.574;2023-03-03T15:26:22;11.10;42.20
8103;DHT22;4094;49.948;11.574;2023-03-03T15:28:58;11.00;42.90
8103;DHT22;4094;49.948;11.574;2023-03-03T15:31:38;11.00;42.50
8103;DHT22;4094;49.948;11.574;2023-03-03T15:34:23;10.90;42.70
8103;DHT22;4094;49.948;11.574;2023-03-03T15:37:01;10.90;43.00
8103;DHT22;4094;49.948;11.574;2023-03-03T15:39:36;10.80;43.00
8103;DHT22;4094;49.948;11.574;2023-03-03T15:42:12;10.80;43.10
8103;DHT22;4094;49.948;11.574;2023-03-03T15:44:51;10.80;43.10
8103;DHT22;4094;49.948;11.574;2023-03-03T15:47:39;10.70;43.00
8103;DHT22;4094;49.948;11.574;2023-03-03T15:50:25;10.70;43.00
8103;DHT22;4094;49.948;11.574;2023-03-03T15:53:07;10.60;43.10
8103;DHT22;4094;49.948;11.574;2023-03-03T15:55:49;10.50;43.20
8103;DHT22;4094;49.948;11.574;2023-03-03T15:58:42;10.50;43.40
8103;DHT22;4094;49.948;11.574;2023-03-03T16:01:20;10.40;43.50
8103;DHT22;4094;49.948;11.574;2023-03-03T16:03:55;10.40;43.60
8103;DHT22;4094;49.948;11.574;2023-03-03T16:06:44;10.30;43.70
8103;DHT22;4094;49.948;11.574;2023-03-03T16:09:31;10.20;43.90
8103;DHT22;4094;49.948;11.574;2023-03-03T16:12:09;10.20;44.20
8103;DHT22;4094;49.948;11.574;2023-03-03T16:14:50;10.10;44.10
8103;DHT22;4094;49.948;11.574;2023-03-03T16:17:26;10.00;44.10
8103;DHT22;4094;49.948;11.574;2023-03-03T16:20:05;9.90;44.10
8103;DHT22;4094;49.948;11.574;2023-03-03T16:22:52;9.90;44.30
8103;DHT22;4094;49.948;11.574;2023-03-03T16:25:50;9.80;44.40
8103;DHT22;4094;49.948;11.574;2023-03-03T16:28:26;9.70;44.80
8103;DHT22;4094;49.948;11.574;2023-03-03T16:31:03;9.60;44.60
8103;DHT22;4094;49.948;11.574;2023-03-03T16:33:38;9.50;44.80
8103;DHT22;4094;49.948;11.574;2023-03-03T16:36:20;9.50;44.90
8103;DHT22;4094;49.948;11.574;2023-03-03T16:38:57;9.40;45.20
8103;DHT22;4094;49.948;11.574;2023-03-03T16:41:42;9.30;45.20
8103;DHT22;4094;49.948;11.574;2023-03-03T16:44:33;9.20;45.40
8103;DHT22;4094;49.948;11.574;2023-03-03T16:47:22;9.10;45.50
8103;DHT22;4094;49.948;11.574;2023-03-03T16:50:08;9.10;45.60
8103;DHT22;4094;49.948;11.574;2023-03-03T16:52:44;9.00;45.60
8103;DHT22;4094;49.948;11.574;2023-03-03T16:55:19;8.90;45.80
8103;DHT22;4094;49.948;11.574;2023-03-03T16:58:04;8.80;45.90
8103;DHT22;4094;49.948;11.574;2023-03-03T17:00:37;8.70;46.20
8103;DHT22;4094;49.948;11.574;2023-03-03T17:03:33;8.60;46.20
8103;DHT22;4094;49.948;11.574;2023-03-03T17:06:10;8.50;46.40
8103;DHT22;4094;49.948;11.574;2023-03-03T17:08:52;8.40;46.40